Time;durP1;ratioP1;P1;durP2;ratioP2;P2;SDS_P1;SDS_P2;PMS_P1;PMS_P2;Temp;Humidity;BMP_temperature;BMP_pressure;BME280_temperature;BME280_humidity;BME280_pressure;Samples;Min_cycle;Max_cycle;Signal;HPM_P1;HPM_P2
2022/01/03 00:00:06;;;;;;;;;;;9.30;99.90;;;;;;5044565;28;19948;-76
2022/01/03 00:02:32;;;;;;;;;;;9.30;99.90;;;;;;5040026;28;19917;-77
2022/01/03 00:04:57;;;;;;;;;;;9.20;99.90;;;;;;5024037;28;19909;-79
2022/01/03 00:07:23;;;;;;;;;;;9.20;99.90;;;;;;5010778;28;19916;-77
2022/01/03 00:09:49;;;;;;;;;;;9.40;99.90;;;;;;5042766;28;19920;-77
2022/01/03 00:12:18;;;;;;;;;;;9.30;99.90;;;;;;5042899;28;20071;-76
2022/01/03 00:14:44;;;;;;;;;;;9.30;99.90;;;;;;5025523;28;19966;-78
2022/01/03 00:17:09;;;;;;;;;;;9.30;99.90;;;;;;5042418;28;19956;-77
2022/01/03 00:19:35;;;;;;;;;;;9.20;99.90;;;;;;5026682;28;19919;-77
2022/01/03 00:22:04;;;;;;;;;;;9.10;99.90;;;;;;5041558;28;19921;-77
2022/01/03 00:24:31;;;;;;;;;;;9.10;99.90;;;;;;5037064;28;20023;-77
2022/01/03 00:27:01;;;;;;;;;;;9.00;99.90;;;;;;5044445;28;19913;-78
2022/01/03 00:29:29;;;;;;;;;;;9.10;99.90;;;;;;5037425;28;19913;-77
2022/01/03 00:31:56;;;;;;;;;;;9.00;99.90;;;;;;5043329;28;19999;-77
2022/01/03 00:34:23;;;;;;;;;;;9.00;99.90;;;;;;5024252;28;19921;-77
2022/01/03 00:36:51;;;;;;;;;;;9.00;99.90;;;;;;5027563;28;19971;-77
2022/01/03 00:39:17;;;;;;;;;;;9.10;99.90;;;;;;5009664;28;19924;-77
2022/01/03 00:41:45;;;;;;;;;;;9.20;99.90;;;;;;5025524;28;19912;-77
2022/01/03 00:44:11;;;;;;;;;;;9.10;99.90;;;;;;5041697;28;19921;-77
2022/01/03 00:46:37;;;;;;;;;;;9.00;99.90;;;;;;5044099;28;19919;-77
2022/01/03 00:49:03;;;;;;;;;;;9.10;99.90;;;;;;5045154;28;20018;-77
2022/01/03 00:51:29;;;;;;;;;;;9.00;99.90;;;;;;5042145;28;19909;-77
2022/01/03 00:53:54;;;;;;;;;;;9.00;99.90;;;;;;5041455;28;19937;-77
2022/01/03 00:56:47;;;;;;;;;;;9.10;99.90;;;;;;5024667;28;19953;-77
2022/01/03 00:59:15;;;;;;;;;;;9.00;99.90;;;;;;5019190;28;19959;-77
2022/01/03 01:01:48;;;;;;;;;;;9.00;99.90;;;;;;5043593;28;19920;-77
2022/01/03 01:04:13;;;;;;;;;;;9.10;99.90;;;;;;5066749;28;19896;-77
2022/01/03 01:06:39;;;;;;;;;;;8.90;99.90;;;;;;5037839;28;19963;-78
2022/01/03 01:09:06;;;;;;;;;;;9.00;99.90;;;;;;5026037;28;19921;-78
2022/01/03 01:11:33;;;;;;;;;;;9.00;99.90;;;;;;5043831;28;19917;-76
2022/01/03 01:13:59;;;;;;;;;;;9.10;99.90;;;;;;5043399;28;19931;-78
2022/01/03 01:16:25;;;;;;;;;;;9.10;99.90;;;;;;5028166;28;20390;-78
2022/01/03 01:18:51;;;;;;;;;;;9.10;99.90;;;;;;5041594;28;19913;-78
2022/01/03 01:21:17;;;;;;;;;;;9.00;99.90;;;;;;5041890;28;19917;-78
2022/01/03 01:23:43;;;;;;;;;;;9.10;99.90;;;;;;5024687;28;19935;-78
2022/01/03 01:28:54;;;;;;;;;;;9.10;99.90;;;;;;5043602;28;19924;-78
2022/01/03 01:31:21;;;;;;;;;;;9.10;99.90;;;;;;5042150;28;19916;-78
2022/01/03 01:33:50;;;;;;;;;;;9.00;99.90;;;;;;5043500;28;20383;-77
2022/01/03 01:36:16;;;;;;;;;;;9.00;99.90;;;;;;5042075;28;20379;-78
2022/01/03 01:38:43;;;;;;;;;;;8.90;99.90;;;;;;5044725;28;19913;-77
2022/01/03 01:41:09;;;;;;;;;;;8.90;99.90;;;;;;5024802;28;20295;-78
2022/01/03 01:43:36;;;;;;;;;;;9.00;99.90;;;;;;5039610;28;19913;-78
2022/01/03 01:46:10;;;;;;;;;;;9.00;99.90;;;;;;5039420;28;19917;-77
2022/01/03 01:48:36;;;;;;;;;;;9.00;99.90;;;;;;5021857;28;19924;-77
2022/01/03 01:51:03;;;;;;;;;;;9.00;99.90;;;;;;5043919;28;19912;-78
2022/01/03 01:53:28;;;;;;;;;;;9.00;99.90;;;;;;5039646;28;19913;-78
2022/01/03 01:55:55;;;;;;;;;;;9.00;99.90;;;;;;5041974;28;19913;-78
2022/01/03 01:58:24;;;;;;;;;;;9.00;99.90;;;;;;5021125;28;19964;-77
2022/01/03 02:00:56;;;;;;;;;;;9.00;99.90;;;;;;5040642;28;19920;-78
2022/01/03 02:03:21;;;;;;;;;;;8.90;99.90;;;;;;5041461;28;19948;-78
2022/01/03 02:05:59;;;;;;;;;;;8.90;99.90;;;;;;5043162;28;20316;-77
2022/01/03 02:08:28;;;;;;;;;;;9.00;99.90;;;;;;5042675;28;20023;-78
2022/01/03 02:11:19;;;;;;;;;;;9.00;99.90;;;;;;5040314;28;19908;-77
2022/01/03 02:13:45;;;;;;;;;;;9.00;99.90;;;;;;5040452;28;19909;-77
2022/01/03 02:16:11;;;;;;;;;;;9.00;99.90;;;;;;5042150;28;19913;-77
2022/01/03 02:18:36;;;;;;;;;;;9.00;99.90;;;;;;5039005;28;19913;-77
2022/01/03 02:21:02;;;;;;;;;;;9.00;99.90;;;;;;5028344;28;19913;-78
2022/01/03 02:23:28;;;;;;;;;;;9.00;99.90;;;;;;5039356;28;19939;-78
2022/01/03 02:25:54;;;;;;;;;;;9.10;99.90;;;;;;5041491;28;19913;-78
2022/01/03 02:28:22;;;;;;;;;;;9.10;99.90;;;;;;5041287;28;20359;-77
2022/01/03 02:30:49;;;;;;;;;;;9.00;99.90;;;;;;5040086;28;19944;-78
2022/01/03 02:33:14;;;;;;;;;;;9.00;99.90;;;;;;5041159;28;19916;-78
2022/01/03 02:35:40;;;;;;;;;;;9.00;99.90;;;;;;5021705;28;19927;-77
2022/01/03 02:38:07;;;;;;;;;;;9.00;99.90;;;;;;5040933;28;19999;-77
2022/01/03 02:40:32;;;;;;;;;;;9.00;99.90;;;;;;5038401;28;19939;-77
2022/01/03 02:42:58;;;;;;;;;;;8.90;99.90;;;;;;5039518;28;19913;-78
2022/01/03 02:45:24;;;;;;;;;;;8.90;99.90;;;;;;5041298;28;20376;-78
2022/01/03 02:47:51;;;;;;;;;;;8.80;99.90;;;;;;5022585;28;20447;-76
2022/01/03 02:50:17;;;;;;;;;;;8.80;99.90;;;;;;5022347;28;19913;-78
2022/01/03 02:52:43;;;;;;;;;;;8.80;99.90;;;;;;5041155;28;19913;-78
2022/01/03 02:55:09;;;;;;;;;;;8.70;99.90;;;;;;5021107;28;19982;-77
2022/01/03 02:57:46;;;;;;;;;;;8.60;99.90;;;;;;5042206;28;19913;-78
2022/01/03 03:00:14;;;;;;;;;;;8.80;99.90;;;;;;5039444;28;19924;-77
2022/01/03 03:02:39;;;;;;;;;;;8.80;99.90;;;;;;5041526;28;20007;-78
2022/01/03 03:05:06;;;;;;;;;;;8.80;99.90;;;;;;5038735;28;20011;-77
2022/01/03 03:07:32;;;;;;;;;;;8.90;99.90;;;;;;5043421;28;19924;-78
2022/01/03 03:09:59;;;;;;;;;;;8.90;99.90;;;;;;5038980;28;19917;-77
2022/01/03 03:12:25;;;;;;;;;;;8.80;99.90;;;;;;5023138;28;19928;-78
2022/01/03 03:14:51;;;;;;;;;;;8.90;99.90;;;;;;5041402;28;19966;-77
2022/01/03 03:17:19;;;;;;;;;;;8.70;99.90;;;;;;5043162;28;20367;-77
2022/01/03 03:19:53;;;;;;;;;;;8.80;99.90;;;;;;5022218;28;19917;-77
2022/01/03 03:22:18;;;;;;;;;;;8.70;99.90;;;;;;5041076;28;19913;-77
2022/01/03 03:24:44;;;;;;;;;;;8.70;99.90;;;;;;5041076;28;19924;-78
2022/01/03 03:27:10;;;;;;;;;;;8.80;99.90;;;;;;5038720;28;19921;-77
2022/01/03 03:29:41;;;;;;;;;;;8.80;99.90;;;;;;5041081;28;19913;-76
2022/01/03 03:32:06;;;;;;;;;;;8.80;99.90;;;;;;5038118;28;19982;-77
2022/01/03 03:34:32;;;;;;;;;;;8.70;99.90;;;;;;5022742;28;19921;-77
2022/01/03 03:36:58;;;;;;;;;;;8.80;99.90;;;;;;5027067;28;20477;-77
2022/01/03 03:39:24;;;;;;;;;;;8.70;99.90;;;;;;5045496;28;20411;-77
2022/01/03 03:41:49;;;;;;;;;;;8.70;99.90;;;;;;5043981;28;19913;-77
2022/01/03 03:44:15;;;;;;;;;;;8.70;99.90;;;;;;5042731;28;20327;-77
2022/01/03 03:46:40;;;;;;;;;;;8.70;99.90;;;;;;5045326;28;20527;-76
2022/01/03 03:49:07;;;;;;;;;;;8.70;99.90;;;;;;5023860;28;20414;-77
2022/01/03 03:51:38;;;;;;;;;;;8.80;99.90;;;;;;5024189;28;19920;-77
2022/01/03 03:54:03;;;;;;;;;;;8.80;99.50;;;;;;5024002;28;19921;-77
2022/01/03 03:56:29;;;;;;;;;;;8.80;99.40;;;;;;5024465;28;20364;-77
2022/01/03 03:58:54;;;;;;;;;;;8.80;98.90;;;;;;5042444;28;19991;-77
2022/01/03 04:01:20;;;;;;;;;;;8.80;99.20;;;;;;5042779;28;19913;-77
2022/01/03 04:03:45;;;;;;;;;;;8.80;99.00;;;;;;5009636;28;19962;-77
2022/01/03 04:06:11;;;;;;;;;;;8.90;99.00;;;;;;5024368;28;19944;-78
2022/01/03 04:08:36;;;;;;;;;;;8.80;99.70;;;;;;5046629;28;20335;-77
2022/01/03 04:11:02;;;;;;;;;;;8.80;99.50;;;;;;5041817;28;19909;-77
2022/01/03 04:13:27;;;;;;;;;;;8.80;99.50;;;;;;5026197;28;20015;-77
2022/01/03 04:15:53;;;;;;;;;;;8.70;99.50;;;;;;5043113;28;19935;-77
2022/01/03 04:18:18;;;;;;;;;;;8.70;99.60;;;;;;5024653;28;19921;-77
2022/01/03 04:20:44;;;;;;;;;;;8.70;99.50;;;;;;5026347;28;19924;-78
2022/01/03 04:23:09;;;;;;;;;;;8.90;97.50;;;;;;5041518;28;19917;-76
2022/01/03 04:25:35;;;;;;;;;;;9.10;95.80;;;;;;5023347;28;19913;-77
2022/01/03 04:28:01;;;;;;;;;;;9.20;94.70;;;;;;5027123;28;19936;-78
2022/01/03 04:30:26;;;;;;;;;;;9.20;95.00;;;;;;5043181;28;19966;-77
2022/01/03 04:32:51;;;;;;;;;;;9.20;93.80;;;;;;5042911;28;19999;-78
2022/01/03 04:35:17;;;;;;;;;;;9.20;94.20;;;;;;5024436;28;20338;-77
2022/01/03 04:37:43;;;;;;;;;;;9.20;94.70;;;;;;5042469;28;20392;-78
2022/01/03 04:40:08;;;;;;;;;;;9.20;93.90;;;;;;5044358;28;20415;-77
2022/01/03 04:42:34;;;;;;;;;;;9.10;94.40;;;;;;5023226;28;19917;-78
2022/01/03 04:45:01;;;;;;;;;;;9.10;94.50;;;;;;5022108;28;19913;-77
2022/01/03 04:47:27;;;;;;;;;;;8.90;94.50;;;;;;5043250;28;20080;-78
2022/01/03 04:49:52;;;;;;;;;;;8.90;94.40;;;;;;5024745;28;20423;-77
2022/01/03 04:52:18;;;;;;;;;;;9.10;93.90;;;;;;5028326;28;19916;-78
2022/01/03 04:54:43;;;;;;;;;;;9.20;92.70;;;;;;5023362;28;20292;-77
2022/01/03 04:57:09;;;;;;;;;;;9.30;91.60;;;;;;5026459;28;19916;-77
2022/01/03 04:59:35;;;;;;;;;;;9.20;92.70;;;;;;5023002;28;20283;-77
2022/01/03 05:02:04;;;;;;;;;;;9.30;92.10;;;;;;5040873;28;19971;-78
2022/01/03 05:04:29;;;;;;;;;;;9.20;92.40;;;;;;5043116;28;19916;-78
2022/01/03 05:06:55;;;;;;;;;;;9.10;92.40;;;;;;5042028;28;19913;-78
2022/01/03 05:09:21;;;;;;;;;;;9.20;92.70;;;;;;5043572;28;19929;-78
2022/01/03 05:11:46;;;;;;;;;;;9.10;93.00;;;;;;5025313;28;20024;-78
2022/01/03 05:14:12;;;;;;;;;;;8.90;93.90;;;;;;5022855;28;20379;-79
2022/01/03 05:16:37;;;;;;;;;;;8.90;93.90;;;;;;5043895;28;19923;-79
2022/01/03 05:19:03;;;;;;;;;;;8.80;95.00;;;;;;5040497;28;19963;-78
2022/01/03 05:21:29;;;;;;;;;;;8.70;95.60;;;;;;5042633;28;19912;-76
2022/01/03 05:23:54;;;;;;;;;;;8.80;95.40;;;;;;5026213;28;19915;-75
2022/01/03 05:26:20;;;;;;;;;;;8.80;95.50;;;;;;5029082;28;19923;-75
2022/01/03 05:28:47;;;;;;;;;;;8.80;95.60;;;;;;5040921;28;19916;-77
2022/01/03 05:31:13;;;;;;;;;;;8.80;95.70;;;;;;5022052;28;19996;-78
2022/01/03 05:33:38;;;;;;;;;;;8.80;95.90;;;;;;5025350;28;20376;-77
2022/01/03 05:36:04;;;;;;;;;;;8.70;96.20;;;;;;5039287;28;19917;-78
2022/01/03 05:38:30;;;;;;;;;;;8.70;96.40;;;;;;5041122;28;20576;-78
2022/01/03 05:40:56;;;;;;;;;;;8.50;96.90;;;;;;5041138;28;20335;-77
2022/01/03 05:43:21;;;;;;;;;;;8.50;97.40;;;;;;5041200;28;20331;-78
2022/01/03 05:45:47;;;;;;;;;;;8.50;97.40;;;;;;5024818;28;19909;-78
2022/01/03 05:48:12;;;;;;;;;;;8.40;97.70;;;;;;5021940;28;19928;-78
2022/01/03 05:50:38;;;;;;;;;;;8.50;97.20;;;;;;5025189;28;20399;-78
2022/01/03 05:53:03;;;;;;;;;;;8.40;97.40;;;;;;5018503;28;19939;-78
2022/01/03 05:55:29;;;;;;;;;;;8.40;97.20;;;;;;5022268;28;20012;-78
2022/01/03 05:57:54;;;;;;;;;;;8.40;97.30;;;;;;5053392;28;19999;-77
2022/01/03 06:00:22;;;;;;;;;;;8.50;96.40;;;;;;5019699;28;19967;-78
2022/01/03 06:02:53;;;;;;;;;;;8.40;97.40;;;;;;5020865;28;19909;-77
2022/01/03 06:05:32;;;;;;;;;;;8.30;97.30;;;;;;5053666;28;19913;-78
2022/01/03 06:07:57;;;;;;;;;;;8.30;96.60;;;;;;5022172;28;19975;-78
2022/01/03 06:10:23;;;;;;;;;;;8.30;96.70;;;;;;5022125;28;20334;-78
2022/01/03 06:12:49;;;;;;;;;;;8.30;96.60;;;;;;5020787;28;19936;-78
2022/01/03 06:15:15;;;;;;;;;;;8.40;96.00;;;;;;5022220;28;19909;-78
2022/01/03 06:17:44;;;;;;;;;;;8.50;95.60;;;;;;5022346;28;19917;-78
2022/01/03 06:20:10;;;;;;;;;;;8.50;95.90;;;;;;5019698;28;19924;-78
2022/01/03 06:22:37;;;;;;;;;;;8.40;96.10;;;;;;5019557;28;19913;-77
2022/01/03 06:25:03;;;;;;;;;;;8.50;95.70;;;;;;5022400;28;19913;-78
2022/01/03 06:27:29;;;;;;;;;;;8.40;95.90;;;;;;5020225;28;20390;-78
2022/01/03 06:29:54;;;;;;;;;;;8.30;96.30;;;;;;5019339;28;19917;-77
2022/01/03 06:32:20;;;;;;;;;;;8.30;96.90;;;;;;5019890;28;20637;-77
2022/01/03 06:34:45;;;;;;;;;;;8.30;96.50;;;;;;5037223;28;20057;-77
2022/01/03 06:37:11;;;;;;;;;;;8.30;96.50;;;;;;4999611;28;20300;-78
2022/01/03 06:39:36;;;;;;;;;;;8.30;96.70;;;;;;5054070;28;19917;-78
2022/01/03 06:42:02;;;;;;;;;;;8.20;97.30;;;;;;5019711;28;19924;-78
2022/01/03 06:44:28;;;;;;;;;;;8.20;97.70;;;;;;5021098;28;19960;-77
2022/01/03 06:46:53;;;;;;;;;;;8.20;98.20;;;;;;5021201;28;19959;-78
2022/01/03 06:49:19;;;;;;;;;;;8.10;98.80;;;;;;5019656;28;20312;-78
2022/01/03 06:51:44;;;;;;;;;;;8.10;98.80;;;;;;5022103;28;19917;-78
2022/01/03 06:54:14;;;;;;;;;;;8.20;98.70;;;;;;5017725;28;20361;-77
2022/01/03 06:56:40;;;;;;;;;;;8.20;99.00;;;;;;5014866;28;20373;-77
2022/01/03 06:59:05;;;;;;;;;;;8.10;99.50;;;;;;5002476;28;19979;-78
2022/01/03 07:01:31;;;;;;;;;;;8.00;99.90;;;;;;5020288;28;20000;-78
2022/01/03 07:03:56;;;;;;;;;;;7.80;99.90;;;;;;5018970;28;19944;-78
2022/01/03 07:06:22;;;;;;;;;;;7.70;99.90;;;;;;5020387;28;19910;-78
2022/01/03 07:08:47;;;;;;;;;;;7.70;99.90;;;;;;5024420;28;19932;-77
2022/01/03 07:11:13;;;;;;;;;;;7.80;99.90;;;;;;5023003;28;20004;-78
2022/01/03 07:13:46;;;;;;;;;;;7.80;99.90;;;;;;5024820;28;19913;-78
2022/01/03 07:18:56;;;;;;;;;;;7.70;99.90;;;;;;5022509;28;19920;-78
2022/01/03 07:21:26;;;;;;;;;;;7.70;99.90;;;;;;5022491;28;20019;-77
2022/01/03 07:23:52;;;;;;;;;;;7.60;99.90;;;;;;5037365;28;19921;-78
2022/01/03 07:26:17;;;;;;;;;;;7.70;99.90;;;;;;5026123;28;19910;-77
2022/01/03 07:28:43;;;;;;;;;;;7.70;99.90;;;;;;5025775;28;20019;-78
2022/01/03 07:31:08;;;;;;;;;;;7.70;99.90;;;;;;5004605;28;20014;-77
2022/01/03 07:33:34;;;;;;;;;;;7.70;99.90;;;;;;5024085;28;19948;-77
2022/01/03 07:36:00;;;;;;;;;;;7.70;99.90;;;;;;5023563;28;19917;-78
2022/01/03 07:38:25;;;;;;;;;;;7.80;99.90;;;;;;5024787;28;19909;-78
2022/01/03 07:40:51;;;;;;;;;;;7.80;99.90;;;;;;5022583;28;19920;-79
2022/01/03 07:43:17;;;;;;;;;;;7.80;99.90;;;;;;5057189;28;20360;-78
2022/01/03 07:45:42;;;;;;;;;;;7.80;99.90;;;;;;5022461;28;20393;-77
2022/01/03 07:48:08;;;;;;;;;;;7.70;99.90;;;;;;5027995;28;19971;-78
2022/01/03 07:50:33;;;;;;;;;;;7.70;99.90;;;;;;5049324;28;19909;-78
2022/01/03 07:53:00;;;;;;;;;;;7.80;99.90;;;;;;5030641;28;19917;-78
2022/01/03 07:55:26;;;;;;;;;;;7.90;99.90;;;;;;5043305;28;19913;-77
2022/01/03 07:57:52;;;;;;;;;;;7.80;99.90;;;;;;5025150;28;20007;-77
2022/01/03 08:00:18;;;;;;;;;;;7.80;99.90;;;;;;5026016;28;19913;-77
2022/01/03 08:02:44;;;;;;;;;;;7.80;99.90;;;;;;5041875;28;19912;-77
2022/01/03 08:05:12;;;;;;;;;;;7.80;99.90;;;;;;5045043;28;20398;-77
2022/01/03 08:07:38;;;;;;;;;;;7.80;99.90;;;;;;5040782;28;20375;-78
2022/01/03 08:10:04;;;;;;;;;;;7.70;99.90;;;;;;5042271;28;19921;-77
2022/01/03 08:12:30;;;;;;;;;;;7.70;99.90;;;;;;5043968;28;20368;-77
2022/01/03 08:14:55;;;;;;;;;;;7.80;99.90;;;;;;5043055;28;19978;-76
2022/01/03 08:17:21;;;;;;;;;;;7.80;99.90;;;;;;5042594;28;19917;-78
2022/01/03 08:19:47;;;;;;;;;;;7.90;99.90;;;;;;5043881;28;20457;-78
2022/01/03 08:22:12;;;;;;;;;;;8.00;99.90;;;;;;5041247;28;19921;-78
2022/01/03 08:24:38;;;;;;;;;;;8.00;99.90;;;;;;5044653;28;20299;-77
2022/01/03 08:27:04;;;;;;;;;;;8.10;99.90;;;;;;5026981;28;19917;-77
2022/01/03 08:29:29;;;;;;;;;;;8.10;99.90;;;;;;5042231;28;20334;-78
2022/01/03 08:31:55;;;;;;;;;;;8.20;99.90;;;;;;5024744;28;20482;-77
2022/01/03 08:34:20;;;;;;;;;;;8.30;99.90;;;;;;5043271;28;19932;-77
2022/01/03 08:36:46;;;;;;;;;;;8.30;99.90;;;;;;5041755;28;19919;-77
2022/01/03 08:39:11;;;;;;;;;;;8.30;99.90;;;;;;5024450;28;19943;-78
2022/01/03 08:41:37;;;;;;;;;;;8.30;99.90;;;;;;5044077;28;19942;-77
2022/01/03 08:44:03;;;;;;;;;;;8.30;99.90;;;;;;5023658;28;19927;-78
2022/01/03 08:46:28;;;;;;;;;;;8.30;99.90;;;;;;5042941;28;19967;-77
2022/01/03 08:48:54;;;;;;;;;;;8.40;99.90;;;;;;5025053;28;20437;-78
2022/01/03 08:51:20;;;;;;;;;;;8.50;99.90;;;;;;5041621;28;19913;-77
2022/01/03 08:53:46;;;;;;;;;;;8.50;99.90;;;;;;5043654;28;20376;-77
2022/01/03 08:56:12;;;;;;;;;;;8.50;99.90;;;;;;5044415;28;19924;-77
2022/01/03 08:58:37;;;;;;;;;;;8.60;99.90;;;;;;5043837;28;20313;-77
2022/01/03 09:01:03;;;;;;;;;;;8.60;99.90;;;;;;5042948;28;19979;-77
2022/01/03 09:03:28;;;;;;;;;;;8.60;99.90;;;;;;5041620;28;19916;-77
2022/01/03 09:05:54;;;;;;;;;;;8.60;99.90;;;;;;5044231;28;20364;-77
2022/01/03 09:08:22;;;;;;;;;;;8.60;99.90;;;;;;5042214;28;19967;-77
2022/01/03 09:10:48;;;;;;;;;;;8.70;99.90;;;;;;5041067;28;19909;-77
2022/01/03 09:13:13;;;;;;;;;;;8.70;99.90;;;;;;5043789;28;19913;-78
2022/01/03 09:15:44;;;;;;;;;;;8.70;99.90;;;;;;5038136;28;19913;-78
2022/01/03 09:18:13;;;;;;;;;;;8.80;99.90;;;;;;5044012;28;19909;-77
2022/01/03 09:20:38;;;;;;;;;;;8.80;99.90;;;;;;5022183;28;20297;-77
2022/01/03 09:23:15;;;;;;;;;;;8.80;99.90;;;;;;5043063;28;19920;-78
2022/01/03 09:30:51;;;;;;;;;;;8.70;99.90;;;;;;5039499;28;19919;-77
2022/01/03 09:33:16;;;;;;;;;;;8.70;99.90;;;;;;5044854;28;19928;-78
2022/01/03 09:35:43;;;;;;;;;;;8.70;99.90;;;;;;5022287;28;19928;-77
2022/01/03 09:38:09;;;;;;;;;;;8.80;99.90;;;;;;5023668;28;19920;-77
2022/01/03 09:40:35;;;;;;;;;;;8.80;99.90;;;;;;5042345;28;19917;-77
2022/01/03 09:43:01;;;;;;;;;;;8.80;99.90;;;;;;5039063;28;19975;-77
2022/01/03 09:45:28;;;;;;;;;;;8.80;99.90;;;;;;5041147;28;19916;-77
2022/01/03 09:47:55;;;;;;;;;;;8.90;99.90;;;;;;5023031;28;19913;-77
2022/01/03 09:50:22;;;;;;;;;;;8.90;99.90;;;;;;5024032;28;19961;-77
2022/01/03 09:52:48;;;;;;;;;;;9.00;99.90;;;;;;5005674;28;19917;-77
2022/01/03 09:55:14;;;;;;;;;;;9.00;99.90;;;;;;5025159;28;19962;-77
2022/01/03 09:57:42;;;;;;;;;;;9.10;99.90;;;;;;5021044;28;19913;-76
2022/01/03 10:00:08;;;;;;;;;;;9.10;99.90;;;;;;5042862;28;19958;-77
2022/01/03 10:02:33;;;;;;;;;;;9.10;99.90;;;;;;5021713;28;19913;-77
2022/01/03 10:04:59;;;;;;;;;;;9.20;99.90;;;;;;5041085;28;19920;-77
2022/01/03 10:07:25;;;;;;;;;;;9.20;99.90;;;;;;5022150;28;20382;-76
2022/01/03 10:09:51;;;;;;;;;;;9.20;99.90;;;;;;5041961;28;19949;-77
2022/01/03 10:12:17;;;;;;;;;;;9.20;99.90;;;;;;5039508;28;20279;-77
2022/01/03 10:14:42;;;;;;;;;;;9.20;99.90;;;;;;5043024;28;19912;-76
2022/01/03 10:17:09;;;;;;;;;;;9.30;99.90;;;;;;5021705;28;19905;-77
2022/01/03 10:19:53;;;;;;;;;;;9.30;99.90;;;;;;5041598;28;19908;-77
2022/01/03 10:22:29;;;;;;;;;;;9.30;99.90;;;;;;5021652;28;19916;-77
2022/01/03 10:24:55;;;;;;;;;;;9.20;99.90;;;;;;5041478;28;19916;-78
2022/01/03 10:27:24;;;;;;;;;;;9.20;99.90;;;;;;5005638;28;19917;-78
2022/01/03 10:29:54;;;;;;;;;;;9.20;99.90;;;;;;5041857;28;19920;-77
2022/01/03 10:32:24;;;;;;;;;;;9.30;99.90;;;;;;5021223;28;20003;-77
2022/01/03 10:34:49;;;;;;;;;;;9.30;99.90;;;;;;5041877;28;19995;-78
2022/01/03 10:37:15;;;;;;;;;;;9.30;99.90;;;;;;5041739;28;20015;-78
2022/01/03 10:39:41;;;;;;;;;;;9.30;99.90;;;;;;5020885;28;19999;-78
2022/01/03 10:42:14;;;;;;;;;;;9.40;99.90;;;;;;5023829;28;19912;-78
2022/01/03 10:44:43;;;;;;;;;;;9.30;99.90;;;;;;5020793;28;19924;-78
2022/01/03 10:47:09;;;;;;;;;;;9.30;99.90;;;;;;5042102;28;20121;-78
2022/01/03 10:49:37;;;;;;;;;;;9.30;99.90;;;;;;5021535;28;20290;-78
2022/01/03 10:52:14;;;;;;;;;;;9.40;99.90;;;;;;5023534;28;19909;-78
2022/01/03 10:54:40;;;;;;;;;;;9.40;99.90;;;;;;5038690;28;20000;-78
2022/01/03 10:57:05;;;;;;;;;;;9.40;99.90;;;;;;5041625;28;19932;-78
2022/01/03 10:59:34;;;;;;;;;;;9.40;99.90;;;;;;5022030;28;20375;-77
2022/01/03 11:02:01;;;;;;;;;;;9.40;99.90;;;;;;5040232;28;20450;-77
2022/01/03 11:04:37;;;;;;;;;;;9.50;99.90;;;;;;5040353;28;19917;-76
2022/01/03 11:10:43;;;;;;;;;;;9.60;99.90;;;;;;5035806;28;20007;-77
2022/01/03 11:13:02;;;;;;;;;;;9.60;99.00;;;;;;5036903;28;19916;-78
2022/01/03 11:15:28;;;;;;;;;;;9.60;98.70;;;;;;5040156;28;19911;-77
2022/01/03 11:18:06;;;;;;;;;;;9.60;98.90;;;;;;5025140;28;19992;-77
2022/01/03 11:20:33;;;;;;;;;;;9.60;98.90;;;;;;5045038;28;20364;-78
2022/01/03 11:22:59;;;;;;;;;;;9.60;98.80;;;;;;5051060;28;19986;-77
2022/01/03 11:25:29;;;;;;;;;;;9.60;98.80;;;;;;5041917;28;19976;-77
2022/01/03 11:27:55;;;;;;;;;;;9.60;99.10;;;;;;5035042;28;19921;-77
2022/01/03 11:30:20;;;;;;;;;;;9.60;99.10;;;;;;5023238;28;20349;-77
2022/01/03 11:32:49;;;;;;;;;;;9.50;99.40;;;;;;5032613;28;19905;-78
2022/01/03 11:35:14;;;;;;;;;;;9.60;98.80;;;;;;5024398;28;19912;-77
2022/01/03 11:37:41;;;;;;;;;;;9.60;98.80;;;;;;5032494;28;19915;-77
2022/01/03 11:40:07;;;;;;;;;;;9.50;99.30;;;;;;5050488;28;19911;-77
2022/01/03 11:42:33;;;;;;;;;;;9.50;99.00;;;;;;5045925;28;19967;-77
2022/01/03 11:44:59;;;;;;;;;;;9.60;98.60;;;;;;5045968;28;20032;-77
2022/01/03 11:47:27;;;;;;;;;;;9.60;98.20;;;;;;5050148;28;20007;-77
2022/01/03 11:49:53;;;;;;;;;;;9.70;98.30;;;;;;5037227;28;19966;-78
2022/01/03 11:52:19;;;;;;;;;;;9.70;98.60;;;;;;5038277;28;19909;-78
2022/01/03 11:54:45;;;;;;;;;;;9.70;98.40;;;;;;5000996;28;19921;-78
2022/01/03 11:57:18;;;;;;;;;;;9.70;98.20;;;;;;5019274;28;19912;-79
2022/01/03 12:05:41;;;;;;;;;;;9.80;97.60;;;;;;5042351;28;19931;-77
2022/01/03 12:08:07;;;;;;;;;;;9.80;98.00;;;;;;5031157;28;19923;-76
2022/01/03 12:10:45;;;;;;;;;;;9.80;99.10;;;;;;5045365;28;20280;-77
2022/01/03 12:13:12;;;;;;;;;;;9.90;99.00;;;;;;5023362;28;20022;-77
2022/01/03 12:15:41;;;;;;;;;;;9.90;97.60;;;;;;5041961;28;19998;-77
2022/01/03 12:18:25;;;;;;;;;;;9.90;97.90;;;;;;5044276;28;19936;-77
2022/01/03 12:20:51;;;;;;;;;;;9.90;97.40;;;;;;5041903;28;20338;-76
2022/01/03 12:23:34;;;;;;;;;;;9.90;96.70;;;;;;5045114;28;20007;-77
2022/01/03 12:26:08;;;;;;;;;;;9.80;97.50;;;;;;5026209;28;20379;-77
2022/01/03 12:28:52;;;;;;;;;;;9.80;97.10;;;;;;5040943;28;20281;-77
2022/01/03 12:31:17;;;;;;;;;;;9.80;97.50;;;;;;5041226;28;19917;-77
2022/01/03 12:34:03;;;;;;;;;;;9.80;97.10;;;;;;5026719;28;20074;-77
2022/01/03 12:36:28;;;;;;;;;;;9.80;96.90;;;;;;5022959;28;19912;-78
2022/01/03 12:39:02;;;;;;;;;;;9.80;97.70;;;;;;5045367;28;19924;-77
2022/01/03 12:41:57;;;;;;;;;;;9.80;96.20;;;;;;5042361;28;19919;-77
2022/01/03 12:44:41;;;;;;;;;;;9.90;96.30;;;;;;5014193;28;19917;-77
2022/01/03 12:47:20;;;;;;;;;;;9.90;95.70;;;;;;5043860;28;20003;-77
2022/01/03 12:49:45;;;;;;;;;;;9.90;95.70;;;;;;5026993;28;19923;-77
2022/01/03 12:52:15;;;;;;;;;;;10.00;95.80;;;;;;5041218;28;19913;-77
2022/01/03 12:54:41;;;;;;;;;;;10.00;96.20;;;;;;5025463;28;20376;-77
2022/01/03 12:57:15;;;;;;;;;;;10.00;95.90;;;;;;5041590;28;20014;-77
2022/01/03 12:59:41;;;;;;;;;;;10.10;96.10;;;;;;5025904;28;19917;-77
2022/01/03 13:02:28;;;;;;;;;;;10.00;96.20;;;;;;5041099;28;19966;-77
2022/01/03 13:04:54;;;;;;;;;;;9.90;95.70;;;;;;5040684;28;19909;-77
2022/01/03 13:07:23;;;;;;;;;;;9.90;96.40;;;;;;5024919;28;19920;-77
2022/01/03 13:09:49;;;;;;;;;;;9.90;96.10;;;;;;5026139;28;19955;-77
2022/01/03 13:12:15;;;;;;;;;;;9.90;97.30;;;;;;5040589;28;20335;-77
2022/01/03 13:14:40;;;;;;;;;;;9.90;95.90;;;;;;5025437;28;19920;-77
2022/01/03 13:17:06;;;;;;;;;;;9.90;95.20;;;;;;5041531;28;20003;-77
2022/01/03 13:19:33;;;;;;;;;;;10.00;95.10;;;;;;5042086;28;19917;-77
2022/01/03 13:22:01;;;;;;;;;;;10.00;95.50;;;;;;5042391;28;19920;-77
2022/01/03 13:24:30;;;;;;;;;;;9.90;95.70;;;;;;5022106;28;19962;-77
2022/01/03 13:27:04;;;;;;;;;;;9.90;96.20;;;;;;5040973;28;20447;-77
2022/01/03 13:29:32;;;;;;;;;;;9.90;96.40;;;;;;5040738;28;19913;-77
2022/01/03 13:31:58;;;;;;;;;;;9.90;95.30;;;;;;5023247;28;20019;-78
2022/01/03 13:34:25;;;;;;;;;;;9.80;95.60;;;;;;5040511;28;20019;-78
2022/01/03 13:36:51;;;;;;;;;;;9.80;95.90;;;;;;5043058;28;19909;-77
2022/01/03 13:39:23;;;;;;;;;;;9.90;95.80;;;;;;5029745;28;19924;-77
2022/01/03 13:41:54;;;;;;;;;;;9.90;95.00;;;;;;5026357;28;19913;-78
2022/01/03 13:50:01;;;;;;;;;;;9.90;95.30;;;;;;5042255;28;20000;-77
2022/01/03 13:52:34;;;;;;;;;;;9.90;95.00;;;;;;5043713;28;19920;-78
2022/01/03 13:55:06;;;;;;;;;;;9.80;94.90;;;;;;5024183;28;20310;-78
2022/01/03 13:57:35;;;;;;;;;;;9.80;94.80;;;;;;5040111;28;19909;-78
2022/01/03 14:00:02;;;;;;;;;;;9.80;95.80;;;;;;5041359;28;19920;-78
2022/01/03 14:02:28;;;;;;;;;;;9.80;94.90;;;;;;5028974;28;19916;-78
2022/01/03 14:04:55;;;;;;;;;;;9.80;95.00;;;;;;5043121;28;19996;-78
2022/01/03 14:07:21;;;;;;;;;;;9.80;95.20;;;;;;5025114;28;19919;-78
2022/01/03 14:09:56;;;;;;;;;;;9.80;96.00;;;;;;5047741;28;19909;-78
2022/01/03 14:12:22;;;;;;;;;;;9.70;95.40;;;;;;5042384;28;20007;-78
2022/01/03 14:14:51;;;;;;;;;;;9.70;95.60;;;;;;5039615;28;20028;-76
2022/01/03 14:17:16;;;;;;;;;;;9.70;95.60;;;;;;5034726;28;19917;-78
2022/01/03 14:19:42;;;;;;;;;;;9.70;94.80;;;;;;5042874;28;20402;-77
2022/01/03 14:22:15;;;;;;;;;;;9.60;95.60;;;;;;5040119;28;20398;-78
2022/01/03 14:24:57;;;;;;;;;;;9.60;95.50;;;;;;5040339;28;19923;-78
2022/01/03 14:27:22;;;;;;;;;;;9.60;96.20;;;;;;5039500;28;19921;-78
2022/01/03 14:29:48;;;;;;;;;;;9.50;95.60;;;;;;5043498;28;19921;-77
2022/01/03 14:32:15;;;;;;;;;;;9.50;95.80;;;;;;5038738;28;20327;-78
2022/01/03 14:34:53;;;;;;;;;;;9.50;95.60;;;;;;5046214;28;19974;-78
2022/01/03 14:37:22;;;;;;;;;;;9.50;95.40;;;;;;5042309;28;19995;-78
2022/01/03 14:39:49;;;;;;;;;;;9.50;95.60;;;;;;5039110;28;20000;-79
2022/01/03 14:42:20;;;;;;;;;;;9.50;95.30;;;;;;5010794;28;19948;-78
2022/01/03 14:44:46;;;;;;;;;;;9.50;96.00;;;;;;5042658;28;19915;-78
2022/01/03 14:47:12;;;;;;;;;;;9.40;95.90;;;;;;5040301;28;19999;-78
2022/01/03 14:49:39;;;;;;;;;;;9.30;96.40;;;;;;5042888;28;20398;-78
2022/01/03 14:52:05;;;;;;;;;;;9.40;95.70;;;;;;5040731;28;20344;-78
2022/01/03 14:54:35;;;;;;;;;;;9.40;95.60;;;;;;5040081;28;19920;-78